Time;durP1;ratioP1;P1;durP2;ratioP2;P2;SDS_P1;SDS_P2;PMS_P1;PMS_P2;Temp;Humidity;BMP_temperature;BMP_pressure;BME280_temperature;BME280_humidity;BME280_pressure;Samples;Min_cycle;Max_cycle;Signal;HPM_P1;HPM_P2
2021/12/20 00:00:21;;;;;;;25.88;8.40;;;;;;;5.30;100.00;102759.38;5030598;28;20029;-62
2021/12/20 00:02:51;;;;;;;17.77;7.85;;;;;;;5.26;100.00;102750.81;5032477;28;20053;-63
2021/12/20 00:05:19;;;;;;;17.90;7.93;;;;;;;5.25;100.00;102738.59;5031897;28;20171;-63
2021/12/20 00:07:44;;;;;;;19.63;7.65;;;;;;;5.27;100.00;102741.97;5031433;28;20041;-63
2021/12/20 00:10:10;;;;;;;20.40;7.68;;;;;;;5.25;100.00;102736.78;5031926;28;20034;-63
2021/12/20 00:12:35;;;;;;;20.25;7.18;;;;;;;5.28;100.00;102741.03;5031461;28;20029;-63
2021/12/20 00:15:00;;;;;;;18.30;7.38;;;;;;;5.24;100.00;102750.88;5030921;28;20036;-63
2021/12/20 00:17:26;;;;;;;15.07;6.75;;;;;;;5.28;100.00;102756.00;5031106;28;20033;-62
2021/12/20 00:19:51;;;;;;;20.45;6.57;;;;;;;5.31;100.00;102742.66;5032311;28;20383;-62
2021/12/20 00:22:17;;;;;;;18.73;7.10;;;;;;;5.25;100.00;102747.31;5031737;28;20036;-63
2021/12/20 00:24:42;;;;;;;17.73;6.45;;;;;;;5.23;100.00;102748.34;5032054;28;20147;-63
2021/12/20 00:27:09;;;;;;;17.23;6.35;;;;;;;5.21;100.00;102740.53;5032429;28;20405;-63
2021/12/20 00:29:35;;;;;;;16.98;6.25;;;;;;;5.20;100.00;102753.75;5031707;28;20470;-63
2021/12/20 00:32:01;;;;;;;14.98;6.80;;;;;;;5.16;100.00;102750.44;5027757;28;20041;-63
2021/12/20 00:34:26;;;;;;;20.15;6.13;;;;;;;5.18;100.00;102748.56;5031586;28;20436;-63
2021/12/20 00:37:01;;;;;;;17.77;6.97;;;;;;;5.19;100.00;102741.53;5031839;28;20108;-63
2021/12/20 00:42:10;;;;;;;18.90;6.40;;;;;;;5.23;100.00;102738.66;5027090;28;20504;-63
2021/12/20 00:44:35;;;;;;;16.58;5.40;;;;;;;5.30;100.00;102733.06;5031522;28;20108;-62
2021/12/20 00:47:00;;;;;;;12.23;5.50;;;;;;;5.22;100.00;102726.44;5031981;28;20473;-63
2021/12/20 00:49:25;;;;;;;15.18;5.85;;;;;;;5.20;100.00;102737.97;5030246;28;20061;-63
2021/12/20 00:51:51;;;;;;;18.00;5.95;;;;;;;5.23;100.00;102733.41;5031118;28;20536;-63
2021/12/20 00:54:16;;;;;;;13.15;5.10;;;;;;;5.23;100.00;102727.31;5028587;28;20067;-63
2021/12/20 00:56:41;;;;;;;16.10;5.50;;;;;;;5.23;100.00;102728.13;5031274;28;20084;-63
2021/12/20 00:59:07;;;;;;;18.30;5.65;;;;;;;5.21;100.00;102727.38;5030040;28;20034;-63
2021/12/20 01:01:33;;;;;;;14.18;5.40;;;;;;;5.16;100.00;102734.66;5031005;28;20030;-63
2021/12/20 01:03:58;;;;;;;14.95;5.18;;;;;;;5.08;100.00;102735.03;5030343;28;20505;-62
2021/12/20 01:06:23;;;;;;;20.17;4.28;;;;;;;5.13;99.18;102742.69;5029560;28;20451;-63
2021/12/20 01:08:50;;;;;;;19.95;5.03;;;;;;;5.18;97.79;102738.03;5030791;28;20046;-62
2021/12/20 01:11:21;;;;;;;15.10;3.83;;;;;;;5.17;98.81;102744.22;5030604;28;20068;-63
2021/12/20 01:13:46;;;;;;;13.52;4.03;;;;;;;5.17;98.51;102736.34;5030637;28;20040;-63
2021/12/20 01:16:13;;;;;;;19.67;4.10;;;;;;;5.14;98.47;102739.16;5030306;28;20029;-63
2021/12/20 01:18:39;;;;;;;15.35;3.83;;;;;;;5.11;97.03;102739.28;5030608;28;20474;-62
2021/12/20 01:21:04;;;;;;;15.82;3.75;;;;;;;5.13;97.66;102736.59;5030637;28;20026;-63
2021/12/20 01:23:30;;;;;;;17.00;4.05;;;;;;;5.13;98.40;102736.59;5029364;28;20084;-62
2021/12/20 01:25:55;;;;;;;19.00;3.60;;;;;;;5.10;95.47;102740.22;5030889;28;20502;-63
2021/12/20 01:28:21;;;;;;;18.67;3.63;;;;;;;5.10;93.18;102742.84;5030007;28;20033;-63
2021/12/20 01:30:46;;;;;;;16.80;4.30;;;;;;;5.08;93.79;102734.19;5030379;28;20387;-63
2021/12/20 01:33:13;;;;;;;19.02;3.30;;;;;;;5.08;94.13;102744.72;5030270;28;20037;-63
2021/12/20 01:35:40;;;;;;;18.17;3.88;;;;;;;5.11;95.37;102734.03;5030345;28;20031;-62
2021/12/20 01:38:05;;;;;;;16.30;3.28;;;;;;;5.14;94.91;102738.28;5023582;28;20026;-63
2021/12/20 01:40:31;;;;;;;15.02;3.47;;;;;;;5.11;95.21;102732.25;5029282;28;20091;-63
2021/12/20 01:42:58;;;;;;;20.35;3.50;;;;;;;5.15;95.94;102734.72;5028649;28;20018;-62
2021/12/20 01:45:27;;;;;;;19.73;3.58;;;;;;;5.09;94.33;102730.63;5029777;28;20061;-63
2021/12/20 01:48:09;;;;;;;19.55;3.78;;;;;;;5.15;93.04;102735.59;5028512;28;20462;-63
2021/12/20 01:53:04;;;;;;;16.10;3.80;;;;;;;5.20;93.53;102728.31;5035716;28;20065;-63
2021/12/20 01:55:29;;;;;;;13.82;3.17;;;;;;;5.17;92.49;102731.09;5034578;28;20061;-63
2021/12/20 01:57:54;;;;;;;16.85;3.40;;;;;;;5.23;92.24;102729.94;5032500;28;20057;-63
2021/12/20 02:00:23;;;;;;;17.40;3.28;;;;;;;5.18;91.36;102734.56;5034977;28;20029;-63
2021/12/20 02:02:53;;;;;;;18.73;3.30;;;;;;;5.14;90.62;102728.63;5034629;28;20041;-63
2021/12/20 02:05:24;;;;;;;19.63;3.72;;;;;;;5.04;90.47;102727.38;5034039;28;20088;-63
2021/12/20 02:07:52;;;;;;;22.10;4.03;;;;;;;5.05;89.26;102723.81;5033024;28;20529;-63
2021/12/20 02:10:19;;;;;;;20.05;3.60;;;;;;;4.98;89.22;102713.63;5034547;28;20034;-63
2021/12/20 02:12:45;;;;;;;22.48;3.70;;;;;;;4.98;88.63;102725.91;5033926;28;20083;-63
2021/12/20 02:15:11;;;;;;;14.57;3.22;;;;;;;4.96;89.96;102718.13;5032674;28;20025;-63
2021/12/20 02:17:38;;;;;;;17.50;3.67;;;;;;;5.01;90.07;102719.63;5032851;28;20485;-63
2021/12/20 02:20:04;;;;;;;22.25;3.60;;;;;;;5.04;90.80;102722.13;5033502;28;20116;-63
2021/12/20 02:22:29;;;;;;;18.50;3.30;;;;;;;5.06;90.98;102720.25;5034796;28;20117;-63
2021/12/20 02:24:55;;;;;;;19.00;3.22;;;;;;;5.06;90.71;102721.13;5034872;28;20455;-63
2021/12/20 02:27:22;;;;;;;19.67;3.33;;;;;;;5.08;90.84;102718.41;5033920;28;20029;-63
2021/12/20 02:30:03;;;;;;;19.38;3.58;;;;;;;5.10;90.51;102722.66;5034682;28;20091;-63
2021/12/20 02:37:56;;;;;;;17.58;3.55;;;;;;;5.05;89.83;102718.56;5033342;28;20049;-63
2021/12/20 02:40:22;;;;;;;21.77;3.65;;;;;;;5.01;90.94;102709.13;5034170;28;20033;-63
2021/12/20 02:42:50;;;;;;;19.48;3.28;;;;;;;4.96;89.04;102707.59;5034777;28;20482;-63
2021/12/20 02:45:16;;;;;;;19.48;3.22;;;;;;;4.98;89.96;102718.88;5034156;28;20052;-63
2021/12/20 02:47:46;;;;;;;21.45;3.50;;;;;;;4.93;89.24;102714.78;5031344;28;20116;-63
2021/12/20 02:50:13;;;;;;;19.48;3.30;;;;;;;5.00;89.28;102716.19;5034526;28;20116;-63
2021/12/20 02:52:40;;;;;;;25.15;3.50;;;;;;;4.96;89.48;102712.84;5032450;28;20033;-63
2021/12/20 02:55:07;;;;;;;19.80;3.47;;;;;;;4.95;88.56;102707.66;5033478;28;20070;-63
2021/12/20 02:57:37;;;;;;;22.33;3.55;;;;;;;4.97;89.83;102711.91;5030468;28;20037;-63
2021/12/20 03:00:06;;;;;;;22.13;4.05;;;;;;;4.93;90.16;102705.09;5032197;28;20075;-63
2021/12/20 03:02:31;;;;;;;19.13;3.55;;;;;;;5.02;88.74;102710.84;5032170;28;20436;-63
2021/12/20 03:04:56;;;;;;;20.13;3.60;;;;;;;5.03;89.14;102715.16;5031991;28;20116;-63
2021/12/20 03:07:25;;;;;;;22.48;3.65;;;;;;;5.03;89.42;102716.00;5030685;28;20045;-63
2021/12/20 03:09:56;;;;;;;19.45;3.35;;;;;;;5.04;87.77;102714.25;5029451;28;20033;-62
2021/12/20 03:12:24;;;;;;;22.75;3.30;;;;;;;5.08;88.02;102702.66;5034184;28;20552;-63
2021/12/20 03:14:54;;;;;;;17.67;3.08;;;;;;;5.05;87.47;102718.56;5032930;28;20035;-63
2021/12/20 03:17:19;;;;;;;20.65;3.80;;;;;;;5.02;87.92;102719.56;5032396;28;20036;-63
2021/12/20 03:19:44;;;;;;;20.70;3.40;;;;;;;5.03;87.81;102716.00;5032727;28;20030;-63
2021/12/20 03:22:10;;;;;;;19.55;3.75;;;;;;;5.06;87.73;102713.22;5032870;28;20029;-63
2021/12/20 03:24:36;;;;;;;25.02;4.05;;;;;;;5.04;86.38;102706.34;5032294;28;20029;-63
2021/12/20 03:27:01;;;;;;;19.75;3.28;;;;;;;4.98;87.94;102703.09;5032217;28;20128;-62
2021/12/20 03:29:26;;;;;;;26.02;3.70;;;;;;;4.96;87.43;102702.34;5032005;28;20025;-63
2021/12/20 03:31:52;;;;;;;18.63;3.40;;;;;;;4.95;88.25;102708.50;5034089;28;20498;-62
2021/12/20 03:34:18;;;;;;;25.92;4.13;;;;;;;4.92;87.58;102713.06;5033101;28;20035;-63
2021/12/20 03:36:44;;;;;;;23.08;3.63;;;;;;;4.87;87.34;102710.69;5033197;28;20033;-63
2021/12/20 03:39:10;;;;;;;17.38;3.50;;;;;;;4.89;88.57;102708.81;5033065;28;20041;-63
2021/12/20 03:41:36;;;;;;;18.98;3.63;;;;;;;4.92;88.76;102708.69;5033704;28;20041;-63
2021/12/20 03:44:04;;;;;;;19.50;3.63;;;;;;;4.90;89.17;102710.53;5032318;28;20043;-63
2021/12/20 03:46:29;;;;;;;25.15;3.85;;;;;;;4.89;88.05;102716.69;5032315;28;20056;-63
2021/12/20 03:48:54;;;;;;;22.55;4.05;;;;;;;4.92;88.71;102713.06;5033067;28;20421;-63
2021/12/20 03:51:20;;;;;;;24.65;3.50;;;;;;;4.92;89.24;102713.06;5031697;28;20033;-63
2021/12/20 03:53:45;;;;;;;17.85;3.42;;;;;;;4.95;90.11;102713.75;5032683;28;20474;-63
2021/12/20 03:56:11;;;;;;;23.55;3.90;;;;;;;4.97;90.62;102711.91;5031615;28;20025;-63
2021/12/20 03:58:36;;;;;;;18.10;3.47;;;;;;;5.00;91.10;102715.31;5030889;28;20048;-63
2021/12/20 04:01:08;;;;;;;24.60;3.72;;;;;;;4.96;89.23;102715.50;5030048;28;20063;-63
2021/12/20 04:03:35;;;;;;;22.70;3.60;;;;;;;4.94;88.51;102711.22;5031738;28;20026;-63
2021/12/20 04:06:02;;;;;;;21.30;3.95;;;;;;;4.95;88.78;102716.38;5030811;28;20116;-63
2021/12/20 04:08:28;;;;;;;22.08;3.78;;;;;;;4.95;88.50;102719.03;5030990;28;20046;-63
2021/12/20 04:10:53;;;;;;;26.52;3.80;;;;;;;4.97;87.26;102716.31;5032387;28;20087;-63
2021/12/20 04:13:18;;;;;;;21.10;3.80;;;;;;;4.92;87.60;102703.41;5031110;28;20033;-63
2021/12/20 04:15:43;;;;;;;21.55;3.63;;;;;;;4.91;88.60;102704.34;5032748;28;20025;-63
2021/12/20 04:18:09;;;;;;;22.17;3.75;;;;;;;4.91;87.44;102701.72;5031427;28;20045;-62
2021/12/20 04:20:34;;;;;;;25.17;4.00;;;;;;;4.97;87.27;102706.66;5031452;28;20108;-63
2021/12/20 04:22:59;;;;;;;21.50;3.75;;;;;;;4.89;87.08;102703.56;5032450;28;20478;-62
2021/12/20 04:25:25;;;;;;;23.42;3.75;;;;;;;4.85;86.39;102709.91;5032000;28;20647;-62
2021/12/20 04:27:50;;;;;;;21.35;3.60;;;;;;;4.89;87.43;102713.25;5032039;28;20386;-62
2021/12/20 04:30:16;;;;;;;22.88;3.58;;;;;;;4.85;84.37;102713.38;5029997;28;20116;-62
2021/12/20 04:32:44;;;;;;;20.00;3.90;;;;;;;4.81;84.37;102713.63;5032333;28;20410;-62
2021/12/20 04:35:11;;;;;;;20.15;3.35;;;;;;;4.78;87.15;102706.72;5031805;28;20037;-63
2021/12/20 04:37:40;;;;;;;24.77;4.15;;;;;;;4.76;86.14;102707.75;5031476;28;20033;-63
2021/12/20 04:40:09;;;;;;;26.42;4.15;;;;;;;4.77;86.24;102710.28;5031397;28;20021;-62
2021/12/20 04:42:34;;;;;;;28.52;4.32;;;;;;;4.80;86.74;102699.63;5032887;28;20053;-62
2021/12/20 04:45:00;;;;;;;26.98;4.15;;;;;;;4.85;84.74;102694.97;5031323;28;20057;-62
2021/12/20 04:47:25;;;;;;;22.85;3.80;;;;;;;4.87;84.09;102707.22;5030692;28;20103;-63
2021/12/20 04:49:51;;;;;;;22.45;3.88;;;;;;;4.87;84.44;102708.06;5032227;28;20029;-62
2021/12/20 04:52:16;;;;;;;22.70;3.90;;;;;;;4.83;84.55;102709.13;5029469;28;20463;-63
2021/12/20 04:54:41;;;;;;;21.67;4.20;;;;;;;4.84;84.47;102706.44;5031518;28;20025;-62
2021/12/20 04:57:07;;;;;;;19.13;3.60;;;;;;;4.86;84.44;102708.97;5028874;28;20394;-62
2021/12/20 04:59:32;;;;;;;25.13;3.95;;;;;;;4.84;85.00;102703.78;5030146;28;20037;-63
2021/12/20 05:01:58;;;;;;;23.35;3.95;;;;;;;4.87;84.49;102704.59;5027553;28;20108;-62
2021/12/20 05:04:23;;;;;;;22.70;3.38;;;;;;;4.85;82.27;102702.03;5025940;28;20033;-62
2021/12/20 05:06:49;;;;;;;22.38;3.90;;;;;;;4.82;81.53;102708.28;5027746;28;20029;-62
2021/12/20 05:09:17;;;;;;;22.00;3.95;;;;;;;4.85;83.62;102699.41;5029983;28;20731;-62
2021/12/20 05:11:50;;;;;;;24.00;4.32;;;;;;;4.85;84.75;102702.03;5031672;28;20536;-63
2021/12/20 05:14:15;;;;;;;28.58;4.60;;;;;;;4.85;83.47;102707.28;5031249;28;20398;-62
2021/12/20 05:16:40;;;;;;;27.17;3.92;;;;;;;4.90;83.32;102705.28;5029210;28;20026;-62
2021/12/20 05:19:05;;;;;;;26.33;4.55;;;;;;;4.88;81.70;102712.38;5030424;28;20036;-63
2021/12/20 05:21:31;;;;;;;24.45;4.05;;;;;;;4.91;81.56;102711.38;5030769;28;20061;-63
2021/12/20 05:23:56;;;;;;;20.90;3.80;;;;;;;4.91;83.05;102712.22;5030477;28;20025;-63
2021/12/20 05:26:21;;;;;;;21.50;4.20;;;;;;;4.91;80.98;102711.38;5030209;28;20551;-63
2021/12/20 05:28:47;;;;;;;23.20;4.35;;;;;;;4.91;81.33;102717.50;5030703;28;20044;-63
2021/12/20 05:31:12;;;;;;;21.20;3.55;;;;;;;4.92;83.60;102707.81;5028786;28;20056;-62
2021/12/20 05:33:37;;;;;;;20.20;3.80;;;;;;;4.94;85.59;102709.44;5030661;28;20037;-63
2021/12/20 05:36:03;;;;;;;25.83;4.45;;;;;;;4.88;80.84;102715.00;5030685;28;20109;-63
2021/12/20 05:38:28;;;;;;;22.38;3.53;;;;;;;4.87;81.13;102715.94;5029997;28;20055;-63
2021/12/20 05:40:53;;;;;;;23.10;3.97;;;;;;;4.89;81.34;102719.31;5029762;28;20095;-62
2021/12/20 05:43:19;;;;;;;24.95;3.95;;;;;;;4.91;80.68;102714.88;5030823;28;20056;-62
2021/12/20 05:45:44;;;;;;;26.45;4.28;;;;;;;4.88;80.14;102712.38;5029183;28;20044;-62
2021/12/20 05:48:09;;;;;;;20.95;3.72;;;;;;;4.90;82.14;102710.53;5030601;28;20044;-63
2021/12/20 05:50:35;;;;;;;24.60;4.10;;;;;;;4.86;82.29;102714.25;5025721;28;20037;-63
2021/12/20 05:53:00;;;;;;;25.85;4.68;;;;;;;4.88;82.59;102717.63;5026025;28;20463;-63
2021/12/20 05:55:25;;;;;;;27.30;3.95;;;;;;;4.85;81.14;102712.53;5025192;28;20742;-63
2021/12/20 05:57:51;;;;;;;24.50;4.05;;;;;;;4.82;81.19;102712.69;5022636;28;20037;-63
2021/12/20 06:00:18;;;;;;;22.65;4.30;;;;;;;4.86;80.54;102719.50;5025432;28;20029;-63
2021/12/20 06:02:46;;;;;;;23.38;3.72;;;;;;;4.87;82.46;102715.94;5026474;28;20032;-62
2021/12/20 06:05:11;;;;;;;24.70;4.55;;;;;;;4.88;81.56;102712.38;5025421;28;20029;-63
2021/12/20 06:07:40;;;;;;;22.42;3.90;;;;;;;4.89;81.40;102714.06;5023497;28;20061;-60
2021/12/20 06:10:06;;;;;;;26.05;3.90;;;;;;;4.85;81.56;102717.81;5025561;28;20099;-60
2021/12/20 06:12:33;;;;;;;20.27;3.58;;;;;;;4.82;81.29;102715.31;5025672;28;20041;-61
2021/12/20 06:14:58;;;;;;;24.30;4.15;;;;;;;4.79;81.31;102707.59;5025581;28;20028;-60
2021/12/20 06:17:23;;;;;;;25.15;4.43;;;;;;;4.85;82.54;102723.06;5024370;28;20057;-60
2021/12/20 06:19:48;;;;;;;25.75;3.95;;;;;;;4.84;82.15;102724.00;5024156;28;20037;-60
2021/12/20 06:22:20;;;;;;;25.75;4.53;;;;;;;4.82;80.65;102731.09;5024295;28;20048;-60
2021/12/20 06:24:45;;;;;;;21.23;3.85;;;;;;;4.84;80.70;102729.25;5023838;28;20026;-60
2021/12/20 06:27:11;;;;;;;24.70;4.47;;;;;;;4.84;82.01;102724.00;5024830;28;20522;-60
2021/12/20 06:29:36;;;;;;;27.15;4.05;;;;;;;4.85;81.84;102728.31;5026961;28;20073;-60
2021/12/20 06:32:03;;;;;;;24.08;4.60;;;;;;;4.86;81.08;102722.13;5024589;28;20033;-60
2021/12/20 06:34:28;;;;;;;24.27;4.15;;;;;;;4.86;83.60;102730.00;5024048;28;20041;-60
2021/12/20 06:36:53;;;;;;;24.40;3.83;;;;;;;4.84;81.16;102731.88;5025795;28;20029;-60
2021/12/20 06:39:19;;;;;;;22.30;4.32;;;;;;;4.82;81.58;102728.47;5027947;28;20038;-60
2021/12/20 06:41:44;;;;;;;23.23;3.72;;;;;;;4.85;82.73;102730.94;5026301;28;20040;-60
2021/12/20 06:44:10;;;;;;;23.52;4.13;;;;;;;4.84;83.67;102737.13;5023645;28;20033;-60
2021/12/20 06:46:40;;;;;;;21.83;3.85;;;;;;;4.83;84.18;102733.66;5026401;28;20050;-59
2021/12/20 06:49:08;;;;;;;24.30;4.00;;;;;;;4.85;84.92;102736.22;5025551;28;20025;-60
2021/12/20 06:51:38;;;;;;;17.45;3.53;;;;;;;4.85;85.98;102733.56;5023435;28;20032;-61
2021/12/20 06:54:03;;;;;;;28.55;4.30;;;;;;;4.81;83.83;102737.28;5024339;28;20036;-60
2021/12/20 06:56:28;;;;;;;20.77;3.78;;;;;;;4.83;84.61;102745.94;5024828;28;20030;-60
2021/12/20 06:58:54;;;;;;;22.80;4.45;;;;;;;4.84;85.13;102752.91;5027538;28;20490;-60
2021/12/20 07:01:20;;;;;;;22.30;3.90;;;;;;;4.82;82.38;102754.75;5026310;28;20044;-60
2021/12/20 07:03:46;;;;;;;23.23;4.25;;;;;;;4.80;81.57;102751.34;5027259;28;20029;-60
2021/12/20 07:06:11;;;;;;;23.90;4.00;;;;;;;4.75;80.16;102755.97;5025917;28;20460;-60
2021/12/20 07:08:36;;;;;;;24.65;4.22;;;;;;;4.71;80.82;102748.25;5025551;28;20048;-60
2021/12/20 07:11:05;;;;;;;24.13;3.83;;;;;;;4.75;82.10;102742.84;5028091;28;20431;-60
2021/12/20 07:13:30;;;;;;;23.83;4.25;;;;;;;4.75;82.40;102758.63;5026847;28;20061;-60
2021/12/20 07:15:55;;;;;;;22.50;3.90;;;;;;;4.75;82.08;102753.34;5024904;28;20056;-60
2021/12/20 07:18:20;;;;;;;20.92;4.00;;;;;;;4.76;81.42;102749.78;5026110;28;20033;-60
2021/12/20 07:20:46;;;;;;;21.05;3.92;;;;;;;4.74;79.33;102754.28;5023507;28;20514;-60
2021/12/20 07:23:11;;;;;;;25.48;4.55;;;;;;;4.69;78.84;102747.47;5029805;28;20033;-60
2021/12/20 07:25:36;;;;;;;24.48;4.05;;;;;;;4.72;79.92;102743.84;5025337;28;20128;-60
2021/12/20 07:28:02;;;;;;;28.05;4.25;;;;;;;4.69;79.77;102755.34;5025098;28;20406;-60
2021/12/20 07:30:27;;;;;;;24.50;3.92;;;;;;;4.71;80.13;102753.53;5027196;28;20368;-61
2021/12/20 07:32:52;;;;;;;22.52;4.38;;;;;;;4.74;82.90;102756.91;5030080;28;20414;-60
2021/12/20 07:35:19;;;;;;;27.48;4.90;;;;;;;4.76;82.97;102755.91;5024178;28;20044;-60
2021/12/20 07:37:44;;;;;;;19.92;4.00;;;;;;;4.76;83.77;102749.78;5024432;28;20029;-60
2021/12/20 07:40:11;;;;;;;23.90;4.25;;;;;;;4.78;84.07;102753.22;5025407;28;20032;-60
2021/12/20 07:42:36;;;;;;;20.38;3.70;;;;;;;4.81;84.92;102758.31;5025515;28;20037;-60
2021/12/20 07:45:02;;;;;;;21.98;4.35;;;;;;;4.78;84.94;102753.22;5026121;28;20397;-60
2021/12/20 07:47:27;;;;;;;25.45;4.53;;;;;;;4.80;85.26;102746.09;5024777;28;20402;-60
2021/12/20 07:49:52;;;;;;;24.95;4.80;;;;;;;4.80;85.29;102757.44;5025495;28;22327;-60
2021/12/20 07:52:18;;;;;;;30.17;5.10;;;;;;;4.78;83.95;102753.22;5025300;28;20033;-60
2021/12/20 07:54:43;;;;;;;25.85;4.35;;;;;;;4.79;85.35;102757.53;5024483;28;20348;-60
2021/12/20 07:57:08;;;;;;;26.20;5.00;;;;;;;4.84;86.18;102758.16;5021614;28;20038;-60
2021/12/20 07:59:34;;;;;;;24.05;4.53;;;;;;;4.80;85.18;102767.97;5025155;28;20113;-61
2021/12/20 08:01:59;;;;;;;24.25;4.63;;;;;;;4.83;85.25;102761.69;5024178;28;20045;-60
2021/12/20 08:04:24;;;;;;;18.27;4.35;;;;;;;4.85;86.33;102762.50;5023744;28;20104;-59
2021/12/20 08:06:50;;;;;;;27.60;4.78;;;;;;;4.82;86.22;102766.13;5024129;28;20041;-60
2021/12/20 08:09:16;;;;;;;20.48;4.28;;;;;;;4.81;86.91;102763.56;5025307;28;20043;-60
2021/12/20 08:11:42;;;;;;;28.52;5.22;;;;;;;4.79;85.82;102765.44;5024340;28;20483;-60
2021/12/20 08:14:07;;;;;;;27.42;4.68;;;;;;;4.74;83.32;102773.50;5025588;28;20117;-60
2021/12/20 08:16:33;;;;;;;23.00;4.57;;;;;;;4.73;81.78;102777.06;5024515;28;20124;-60
2021/12/20 08:18:58;;;;;;;20.52;4.50;;;;;;;4.74;82.64;102770.88;5026010;28;20395;-56
2021/12/20 08:21:24;;;;;;;21.13;4.78;;;;;;;4.76;83.21;102770.81;5030122;28;20033;-56
2021/12/20 08:23:49;;;;;;;29.85;10.65;;;;;;;4.84;81.14;102768.69;5028485;28;20046;-57
2021/12/20 08:26:15;;;;;;;22.73;4.07;;;;;;;4.79;81.42;102773.31;5028779;28;20548;-57
2021/12/20 08:28:40;;;;;;;24.73;4.90;;;;;;;4.79;82.63;102779.41;5028545;28;20029;-56
2021/12/20 08:31:08;;;;;;;34.13;4.78;;;;;;;4.71;81.68;102779.81;5029771;28;20438;-56
2021/12/20 08:33:35;;;;;;;23.05;4.38;;;;;;;4.69;82.32;102776.38;5027202;28;20061;-56
2021/12/20 08:36:02;;;;;;;21.23;4.10;;;;;;;4.74;84.02;102777.94;5028003;28;20426;-59
2021/12/20 08:38:28;;;;;;;20.15;4.20;;;;;;;4.77;84.93;102775.16;5027587;28;20029;-58
2021/12/20 08:40:53;;;;;;;19.48;4.30;;;;;;;4.76;82.12;102770.81;5028845;28;20025;-58
2021/12/20 08:43:20;;;;;;;19.70;4.03;;;;;;;4.76;82.05;102778.69;5027750;28;20430;-58
2021/12/20 08:45:46;;;;;;;26.15;4.20;;;;;;;4.79;82.40;102775.94;5021609;28;20038;-57
2021/12/20 08:48:12;;;;;;;23.25;4.22;;;;;;;4.83;83.41;102778.34;5022098;28;20060;-58
2021/12/20 08:50:40;;;;;;;23.33;3.97;;;;;;;4.78;81.82;102776.88;5021406;28;20498;-58
2021/12/20 08:53:06;;;;;;;22.83;4.70;;;;;;;4.82;82.21;102792.41;5023888;28;20296;-57
2021/12/20 08:55:32;;;;;;;22.50;4.30;;;;;;;4.86;81.51;102779.97;5025612;28;20029;-61
2021/12/20 08:57:58;;;;;;;20.35;4.90;;;;;;;4.88;81.49;102783.34;5020295;28;20032;-61
2021/12/20 09:00:26;;;;;;;21.98;4.30;;;;;;;4.91;80.69;102775.34;5021051;28;20033;-60
2021/12/20 09:02:52;;;;;;;24.50;4.43;;;;;;;4.92;79.86;102781.44;5029233;28;20075;-60
2021/12/20 09:05:19;;;;;;;19.83;3.85;;;;;;;4.93;80.58;102783.16;5024045;28;20025;-60
2021/12/20 09:07:44;;;;;;;26.90;4.30;;;;;;;4.97;81.36;102782.91;5026376;28;20069;-60
2021/12/20 09:10:12;;;;;;;24.50;4.25;;;;;;;4.98;82.72;102774.09;5030668;28;20057;-60
2021/12/20 09:12:38;;;;;;;19.02;4.55;;;;;;;5.02;79.36;102781.84;5031528;28;20510;-60
2021/12/20 09:15:05;;;;;;;22.38;4.30;;;;;;;5.03;79.84;102789.63;5031501;28;20479;-60
2021/12/20 09:17:30;;;;;;;20.73;3.90;;;;;;;5.05;79.38;102792.19;5031118;28;20049;-60
2021/12/20 09:19:56;;;;;;;17.02;3.47;;;;;;;5.07;79.27;102790.31;5031259;28;20051;-62
2021/12/20 09:22:26;;;;;;;26.55;6.72;;;;;;;5.07;77.54;102795.59;5030149;28;20039;-62
2021/12/20 09:24:52;;;;;;;24.60;4.53;;;;;;;5.12;81.21;102793.59;5028835;28;20030;-62
2021/12/20 09:27:17;;;;;;;24.27;4.10;;;;;;;5.14;80.48;102791.75;5028852;28;20500;-62
2021/12/20 09:29:42;;;;;;;17.20;3.20;;;;;;;5.17;77.78;102796.00;5027392;28;20504;-62
2021/12/20 09:32:07;;;;;;;20.15;3.95;;;;;;;5.10;76.51;102796.28;5030034;28;20033;-62
2021/12/20 09:34:33;;;;;;;19.70;4.07;;;;;;;5.07;75.89;102800.84;5025415;28;20045;-62
2021/12/20 09:37:04;;;;;;;18.25;3.78;;;;;;;5.07;78.19;102806.09;5022530;28;20022;-62
2021/12/20 09:39:29;;;;;;;18.95;3.65;;;;;;;5.10;77.79;102800.72;5025095;28;20043;-62
2021/12/20 09:42:00;;;;;;;18.02;4.13;;;;;;;5.12;77.34;102804.09;5022857;28;20034;-62
2021/12/20 09:44:27;;;;;;;22.77;4.30;;;;;;;5.14;76.86;102810.16;5029582;28;20026;-62
2021/12/20 09:46:58;;;;;;;19.83;3.90;;;;;;;5.13;77.10;102813.69;5026271;28;20053;-62
2021/12/20 09:49:24;;;;;;;22.20;4.30;;;;;;;5.16;76.80;102816.19;5026857;28;20156;-62
2021/12/20 09:51:50;;;;;;;21.08;4.32;;;;;;;5.16;77.53;102810.06;5020235;28;21333;-62
2021/12/20 09:54:15;;;;;;;21.50;4.20;;;;;;;5.20;80.06;102817.75;5029988;28;20393;-62
2021/12/20 09:56:42;;;;;;;23.63;4.03;;;;;;;5.17;77.48;102823.13;5025641;28;20572;-62
2021/12/20 09:59:12;;;;;;;22.15;4.15;;;;;;;5.15;77.53;102819.75;5021034;28;20389;-62
2021/12/20 10:01:39;;;;;;;20.20;3.95;;;;;;;5.12;76.49;102809.38;5022788;28;20120;-62
2021/12/20 10:04:06;;;;;;;21.63;4.15;;;;;;;5.10;77.13;102811.22;5021931;28;20029;-62
2021/12/20 10:06:31;;;;;;;20.92;4.53;;;;;;;5.16;78.65;102813.56;5028953;28;20034;-62
2021/12/20 10:09:03;;;;;;;19.10;3.83;;;;;;;5.13;77.02;102805.81;5028751;28;21241;-62
2021/12/20 10:11:30;;;;;;;23.52;4.10;;;;;;;5.11;76.90;102815.56;5027843;28;20437;-62
2021/12/20 10:14:13;;;;;;;22.15;4.05;;;;;;;5.09;76.89;102809.53;5030214;28;20049;-62
2021/12/20 10:16:40;;;;;;;19.00;3.47;;;;;;;5.08;77.36;102813.09;5030715;28;20030;-62
2021/12/20 10:19:27;;;;;;;18.65;3.70;;;;;;;5.06;77.50;102810.53;5033616;28;20498;-62
2021/12/20 10:21:53;;;;;;;18.02;4.25;;;;;;;5.16;78.76;102816.19;5030585;28;20060;-62
2021/12/20 10:24:32;;;;;;;25.80;4.20;;;;;;;5.19;79.58;102817.81;5023207;28;20625;-62
2021/12/20 10:26:58;;;;;;;21.63;4.40;;;;;;;5.26;78.08;102819.19;5028632;28;20548;-63
2021/12/20 10:29:23;;;;;;;19.27;3.88;;;;;;;5.30;77.92;102822.53;5030661;28;20147;-62
2021/12/20 10:31:50;;;;;;;21.05;4.22;;;;;;;5.30;78.65;102810.22;5029818;28;20032;-62
2021/12/20 10:34:18;;;;;;;21.23;4.00;;;;;;;5.35;76.20;102815.25;5031803;28;20041;-62
2021/12/20 10:36:54;;;;;;;20.70;4.10;;;;;;;5.35;78.28;102812.63;5031479;28;20486;-62
2021/12/20 10:39:43;;;;;;;20.67;4.57;;;;;;;5.38;79.83;102809.84;5029307;28;20052;-62
2021/12/20 10:42:22;;;;;;;22.45;4.28;;;;;;;5.43;77.47;102809.59;5025173;28;20037;-62
2021/12/20 10:45:08;;;;;;;19.80;4.40;;;;;;;5.40;77.92;102818.50;5023243;28;20036;-62
2021/12/20 10:47:34;;;;;;;21.35;4.25;;;;;;;5.40;78.77;102818.50;5023837;28;20030;-62
2021/12/20 10:50:18;;;;;;;19.13;4.22;;;;;;;5.37;78.14;102814.25;5018225;28;20041;-62
2021/12/20 10:52:43;;;;;;;19.70;3.97;;;;;;;5.39;77.29;102811.53;5021810;28;20033;-62
2021/12/20 10:55:11;;;;;;;19.20;4.05;;;;;;;5.38;78.04;102815.09;5020144;28;20044;-62
2021/12/20 10:57:36;;;;;;;26.95;4.85;;;;;;;5.39;78.39;102811.53;5023027;28;20033;-62
2021/12/20 11:00:16;;;;;;;18.63;4.25;;;;;;;5.41;79.46;102803.53;5023711;28;20033;-62
2021/12/20 11:03:25;;;;;;;20.10;4.32;;;;;;;5.45;77.68;102800.69;5021587;28;20041;-62
2021/12/20 11:06:26;;;;;;;18.30;4.28;;;;;;;5.48;78.80;102808.41;5027061;28;20044;-62
2021/12/20 11:11:27;;;;;;;23.08;4.55;;;;;;;5.48;78.16;102811.06;5029723;28;20538;-62
2021/12/20 11:13:52;;;;;;;20.88;4.43;;;;;;;5.49;77.47;102804.03;5028242;28;20105;-62
2021/12/20 11:16:37;;;;;;;20.23;4.55;;;;;;;5.55;79.03;102808.09;5024822;28;20052;-62
2021/12/20 11:19:06;;;;;;;19.75;4.25;;;;;;;5.56;78.88;102809.81;5024617;28;20033;-62
2021/12/20 11:21:31;;;;;;;20.98;4.25;;;;;;;5.59;78.94;102801.75;5026947;28;20482;-62
2021/12/20 11:23:56;;;;;;;19.15;3.95;;;;;;;5.61;78.12;102798.13;5026789;28;20030;-62
2021/12/20 11:26:22;;;;;;;21.42;4.32;;;;;;;5.57;77.46;102801.81;5028467;28;20030;-62
2021/12/20 11:28:47;;;;;;;18.85;3.70;;;;;;;5.58;77.72;102800.91;5028500;28;20072;-62
2021/12/20 11:31:12;;;;;;;21.17;4.07;;;;;;;5.60;77.42;102798.19;5023102;28;20078;-61
2021/12/20 11:33:38;;;;;;;26.40;4.70;;;;;;;5.57;77.81;102803.63;5022491;28;20037;-62
2021/12/20 11:36:03;;;;;;;20.77;4.20;;;;;;;5.58;78.30;102811.41;5020402;28;20437;-62